Time;durP1;ratioP1;P1;durP2;ratioP2;P2;SDS_P1;SDS_P2;PMS_P1;PMS_P2;Temp;Humidity;BMP_temperature;BMP_pressure;BME280_temperature;BME280_humidity;BME280_pressure;Samples;Min_cycle;Max_cycle;Signal;HPM_P1;HPM_P2
2023/05/16 00:00:24;;;;;;;14.98;3.40;;;9.90;99.90;;;;;;5041310;28;20090;-57
2023/05/16 00:02:50;;;;;;;15.55;3.15;;;9.90;99.90;;;;;;5023253;28;20047;-56
2023/05/16 00:05:16;;;;;;;15.45;3.60;;;9.80;99.90;;;;;;5040996;28;20060;-54
2023/05/16 00:07:44;;;;;;;16.90;3.25;;;9.80;99.90;;;;;;5041576;28;20045;-56
2023/05/16 00:10:10;;;;;;;16.83;3.00;;;9.80;99.90;;;;;;5021800;28;20056;-54
2023/05/16 00:12:38;;;;;;;16.45;3.80;;;9.80;99.90;;;;;;5041464;28;20029;-54
2023/05/16 00:15:09;;;;;;;14.95;3.10;;;9.70;99.90;;;;;;5022943;28;20477;-51
2023/05/16 00:17:35;;;;;;;18.13;3.05;;;9.60;99.90;;;;;;5040621;28;20060;-54
2023/05/16 00:20:06;;;;;;;20.38;3.15;;;9.60;99.90;;;;;;5041119;28;20120;-54
2023/05/16 00:22:32;;;;;;;18.77;3.55;;;9.60;99.90;;;;;;5041208;28;20167;-53
2023/05/16 00:24:58;;;;;;;21.00;4.05;;;9.50;99.90;;;;;;5040776;28;20135;-56
2023/05/16 00:27:24;;;;;;;20.05;3.30;;;9.60;99.90;;;;;;5040496;28;20437;-55
2023/05/16 00:29:49;;;;;;;18.33;3.38;;;9.40;99.90;;;;;;5041108;28;20072;-54
2023/05/16 00:32:16;;;;;;;15.75;2.78;;;9.40;99.90;;;;;;5041234;28;20045;-49
2023/05/16 00:34:42;;;;;;;16.27;2.88;;;9.40;99.90;;;;;;5041149;28;20049;-53
2023/05/16 00:37:08;;;;;;;15.57;2.58;;;9.30;99.90;;;;;;5041189;28;20044;-56
2023/05/16 00:39:33;;;;;;;13.15;2.90;;;9.30;99.90;;;;;;5041040;28;20129;-52
2023/05/16 00:41:59;;;;;;;13.55;2.47;;;9.20;99.90;;;;;;5039175;28;20313;-56
2023/05/16 00:44:25;;;;;;;17.60;3.47;;;9.20;99.90;;;;;;5040724;28;20037;-56
2023/05/16 00:46:51;;;;;;;14.65;3.35;;;9.20;99.90;;;;;;5041289;28;20512;-52
2023/05/16 00:49:17;;;;;;;15.32;2.80;;;9.20;99.90;;;;;;5040631;28;20563;-55
2023/05/16 00:51:43;;;;;;;19.25;3.28;;;9.20;99.90;;;;;;5044266;28;20037;-51
2023/05/16 00:54:09;;;;;;;18.63;3.15;;;9.10;99.90;;;;;;5044829;28;20196;-56
2023/05/16 00:56:35;;;;;;;19.08;3.25;;;9.00;99.90;;;;;;5043980;28;20168;-55
2023/05/16 00:59:02;;;;;;;13.40;2.38;;;9.00;99.90;;;;;;5043871;28;20090;-54
2023/05/16 01:01:28;;;;;;;12.57;2.80;;;9.00;99.90;;;;;;5044960;28;20564;-56
2023/05/16 01:03:54;;;;;;;13.32;3.15;;;9.00;99.90;;;;;;5044707;28;20076;-54
2023/05/16 01:06:20;;;;;;;15.45;3.03;;;8.90;99.90;;;;;;5026819;28;20064;-57
2023/05/16 01:08:45;;;;;;;14.43;2.78;;;8.90;99.90;;;;;;5044381;28;20041;-53
2023/05/16 01:11:25;;;;;;;17.38;3.05;;;8.90;99.90;;;;;;5043442;28;20659;-52
2023/05/16 01:14:02;;;;;;;16.75;2.72;;;8.90;99.90;;;;;;5044421;28;20433;-53
2023/05/16 01:16:49;;;;;;;9.32;2.42;;;8.90;99.90;;;;;;5044818;28;20041;-53
2023/05/16 01:19:40;;;;;;;18.52;3.55;;;8.90;99.90;;;;;;5044451;28;20044;-54
2023/05/16 01:22:20;;;;;;;12.00;2.38;;;8.90;99.90;;;;;;5043198;28;20041;-55
2023/05/16 01:25:10;;;;;;;15.38;2.92;;;8.90;99.90;;;;;;5026296;28;20076;-54
2023/05/16 01:27:37;;;;;;;17.00;3.08;;;8.80;99.90;;;;;;5043770;28;20411;-54
2023/05/16 01:30:34;;;;;;;17.50;2.83;;;8.80;99.90;;;;;;5043612;28;20064;-55
2023/05/16 01:32:59;;;;;;;18.50;2.67;;;8.80;99.90;;;;;;5042551;28;20571;-56
2023/05/16 01:35:26;;;;;;;12.05;2.42;;;8.80;99.90;;;;;;5026050;28;20125;-53
2023/05/16 01:38:07;;;;;;;18.50;2.90;;;8.80;99.90;;;;;;5044661;28;20073;-57
2023/05/16 01:40:51;;;;;;;15.38;2.78;;;8.80;99.90;;;;;;5043746;28;20041;-53
2023/05/16 01:43:52;;;;;;;14.30;2.10;;;8.90;99.90;;;;;;5025402;28;20451;-56
2023/05/16 01:46:25;;;;;;;15.23;2.28;;;8.90;99.90;;;;;;4999282;28;20056;-53
2023/05/16 01:49:19;;;;;;;13.90;2.67;;;8.80;99.90;;;;;;5043777;28;20183;-51
2023/05/16 01:51:51;;;;;;;16.08;2.67;;;8.80;99.90;;;;;;5042940;28;20045;-53
2023/05/16 01:54:18;;;;;;;20.40;2.95;;;8.70;99.90;;;;;;5043468;28;20399;-51
2023/05/16 01:56:51;;;;;;;15.55;2.40;;;8.60;99.90;;;;;;5042918;28;20051;-56
2023/05/16 01:59:22;;;;;;;15.35;2.58;;;8.60;99.90;;;;;;5042765;28;20056;-55
2023/05/16 02:01:48;;;;;;;14.95;2.63;;;8.50;99.90;;;;;;5042418;28;20053;-53
2023/05/16 02:04:14;;;;;;;14.63;2.78;;;8.40;99.90;;;;;;5043351;28;20495;-56
2023/05/16 02:06:41;;;;;;;14.45;2.67;;;8.40;99.90;;;;;;5042803;28;20444;-53
2023/05/16 02:09:07;;;;;;;11.05;2.63;;;8.30;99.90;;;;;;5043465;28;20520;-55
2023/05/16 02:11:32;;;;;;;14.52;2.47;;;8.30;99.90;;;;;;5025079;28;20048;-54
2023/05/16 02:13:58;;;;;;;20.05;2.83;;;8.20;99.90;;;;;;5042158;28;20037;-50
2023/05/16 02:16:24;;;;;;;12.10;2.70;;;8.20;99.90;;;;;;5043860;28;20557;-56
2023/05/16 02:18:50;;;;;;;13.80;2.50;;;8.20;99.90;;;;;;5043426;28;20044;-49
2023/05/16 02:21:15;;;;;;;13.57;2.40;;;8.10;99.90;;;;;;5042860;28;20044;-54
2023/05/16 02:23:41;;;;;;;13.63;2.63;;;8.10;99.90;;;;;;5042812;28;20061;-56
2023/05/16 02:26:07;;;;;;;17.35;2.90;;;8.10;99.90;;;;;;5042047;28;20044;-51
2023/05/16 02:28:32;;;;;;;14.88;2.50;;;8.00;99.90;;;;;;5043084;28;20495;-56
2023/05/16 02:30:59;;;;;;;12.38;2.38;;;8.00;99.90;;;;;;5042727;28;20048;-54
2023/05/16 02:33:26;;;;;;;17.17;2.92;;;8.00;99.90;;;;;;5025141;28;20198;-56
2023/05/16 02:35:52;;;;;;;10.73;1.92;;;8.00;99.90;;;;;;5043209;28;20041;-55
2023/05/16 02:38:19;;;;;;;16.40;2.92;;;8.00;99.90;;;;;;5041808;28;20424;-52
2023/05/16 02:40:46;;;;;;;17.00;2.47;;;7.90;99.90;;;;;;5042017;28;20052;-56
2023/05/16 02:43:12;;;;;;;15.57;2.72;;;7.90;99.90;;;;;;5042245;28;20045;-53
2023/05/16 02:45:38;;;;;;;16.30;2.25;;;7.90;99.90;;;;;;5042815;28;20526;-55
2023/05/16 02:48:03;;;;;;;14.85;2.58;;;7.80;99.90;;;;;;5042083;28;20067;-53
2023/05/16 02:50:29;;;;;;;10.95;2.10;;;7.80;99.90;;;;;;5042747;28;20049;-55
2023/05/16 02:52:55;;;;;;;14.80;2.30;;;7.80;99.90;;;;;;5042616;28;20045;-53
2023/05/16 02:55:21;;;;;;;11.57;2.28;;;7.80;99.90;;;;;;5040856;28;20048;-54
2023/05/16 02:57:46;;;;;;;13.27;2.50;;;7.90;99.90;;;;;;5042461;28;20500;-55
2023/05/16 03:00:13;;;;;;;11.82;2.13;;;7.90;99.90;;;;;;5042455;28;20492;-51
2023/05/16 03:02:38;;;;;;;13.10;2.03;;;7.90;99.90;;;;;;5041625;28;20047;-55
2023/05/16 03:05:05;;;;;;;14.85;2.45;;;7.90;99.90;;;;;;5042234;28;20041;-49
2023/05/16 03:07:31;;;;;;;12.95;2.40;;;7.90;99.90;;;;;;5042314;28;20409;-56
2023/05/16 03:09:56;;;;;;;13.55;2.85;;;7.90;99.90;;;;;;5041451;28;20059;-56
2023/05/16 03:12:22;;;;;;;16.50;2.65;;;7.90;99.90;;;;;;5041183;28;20110;-52
2023/05/16 03:14:48;;;;;;;11.30;2.28;;;7.80;99.90;;;;;;5042113;28;20496;-55
2023/05/16 03:17:13;;;;;;;13.68;2.65;;;7.80;99.90;;;;;;5042248;28;20044;-53
2023/05/16 03:19:40;;;;;;;22.23;3.00;;;7.80;99.90;;;;;;5041059;28;20193;-56
2023/05/16 03:22:06;;;;;;;13.05;2.47;;;7.80;99.90;;;;;;5042368;28;20114;-48
2023/05/16 03:24:31;;;;;;;15.77;2.45;;;7.80;99.90;;;;;;5041945;28;20392;-50
2023/05/16 03:26:58;;;;;;;13.27;2.42;;;7.80;99.90;;;;;;5041304;28;20055;-56
2023/05/16 03:29:25;;;;;;;16.15;2.75;;;7.80;99.90;;;;;;5041797;28;20052;-53
2023/05/16 03:31:51;;;;;;;12.65;2.15;;;7.70;99.90;;;;;;5041895;28;20049;-56
2023/05/16 03:34:17;;;;;;;12.40;2.50;;;7.70;99.90;;;;;;5041976;28;20076;-53
2023/05/16 03:36:43;;;;;;;13.70;2.35;;;7.80;99.90;;;;;;5040567;28;20519;-49
2023/05/16 03:39:08;;;;;;;10.63;2.53;;;7.80;99.90;;;;;;5041450;28;20073;-56
2023/05/16 03:41:34;;;;;;;15.15;2.75;;;7.70;99.90;;;;;;5040550;28;20087;-51
2023/05/16 03:44:00;;;;;;;12.60;2.10;;;7.80;99.90;;;;;;5041053;28;20040;-49
2023/05/16 03:46:25;;;;;;;16.13;2.70;;;7.80;99.90;;;;;;5041374;28;20044;-53
2023/05/16 03:48:51;;;;;;;19.08;2.45;;;7.80;99.90;;;;;;5041004;28;20041;-55
2023/05/16 03:51:17;;;;;;;10.45;2.28;;;7.90;99.90;;;;;;5041497;28;20043;-51
2023/05/16 03:53:42;;;;;;;21.40;3.25;;;8.00;99.90;;;;;;5041071;28;20052;-54
2023/05/16 03:56:08;;;;;;;13.10;2.85;;;8.00;99.90;;;;;;5040564;28;20185;-56
2023/05/16 03:58:33;;;;;;;15.10;2.50;;;8.00;99.90;;;;;;5041482;28;20049;-51
2023/05/16 04:00:59;;;;;;;18.45;3.00;;;8.10;99.90;;;;;;5022989;28;20051;-54
2023/05/16 04:03:27;;;;;;;15.32;2.83;;;8.00;99.90;;;;;;5041673;28;20052;-55
2023/05/16 04:05:56;;;;;;;11.40;2.45;;;8.00;99.90;;;;;;5041058;28;20063;-51
2023/05/16 04:08:22;;;;;;;15.18;2.78;;;8.00;99.90;;;;;;5040863;28;20125;-55
2023/05/16 04:10:48;;;;;;;16.10;2.67;;;8.00;99.90;;;;;;5040429;28;20115;-53
2023/05/16 04:13:14;;;;;;;17.30;3.03;;;8.00;99.90;;;;;;5041384;28;20067;-52
2023/05/16 04:15:39;;;;;;;10.52;2.42;;;8.00;99.90;;;;;;5040592;28;20127;-52
2023/05/16 04:18:05;;;;;;;17.80;3.00;;;8.00;99.90;;;;;;5041604;28;21025;-56
2023/05/16 04:20:31;;;;;;;14.02;2.70;;;7.90;99.90;;;;;;5041745;28;20392;-55
2023/05/16 04:22:56;;;;;;;13.02;3.53;;;8.00;99.90;;;;;;5040626;28;20237;-53
2023/05/16 04:25:22;;;;;;;13.27;3.28;;;7.90;99.90;;;;;;5041826;28;20088;-56
2023/05/16 04:27:48;;;;;;;12.75;2.92;;;7.90;99.90;;;;;;5045390;28;20040;-50
2023/05/16 04:30:13;;;;;;;9.88;3.00;;;7.90;99.90;;;;;;5045077;28;20049;-55
2023/05/16 04:32:39;;;;;;;13.20;2.90;;;7.80;99.90;;;;;;5026700;28;20080;-51
2023/05/16 04:35:08;;;;;;;14.48;2.90;;;7.80;99.90;;;;;;5045124;28;20049;-51
2023/05/16 04:37:34;;;;;;;14.77;2.47;;;7.80;99.90;;;;;;5045555;28;20455;-53
2023/05/16 04:40:00;;;;;;;15.25;3.00;;;8.00;99.90;;;;;;5043629;28;20075;-53
2023/05/16 04:42:26;;;;;;;14.65;2.80;;;7.90;99.90;;;;;;5045584;28;20879;-56
2023/05/16 04:44:52;;;;;;;18.25;2.85;;;8.10;99.90;;;;;;5044797;28;20511;-52
2023/05/16 04:47:17;;;;;;;13.48;2.60;;;8.20;99.90;;;;;;5044844;28;20049;-56
2023/05/16 04:49:43;;;;;;;12.65;2.47;;;8.50;99.90;;;;;;5026813;28;20048;-56
2023/05/16 04:52:09;;;;;;;11.02;2.63;;;8.70;99.90;;;;;;5044670;28;20396;-53
2023/05/16 04:54:35;;;;;;;15.77;2.50;;;9.00;99.90;;;;;;5044552;28;20060;-56
2023/05/16 04:57:00;;;;;;;12.07;2.53;;;9.20;99.90;;;;;;5044050;28;20071;-50
2023/05/16 04:59:26;;;;;;;12.30;2.53;;;9.40;99.90;;;;;;5044748;28;20037;-56
2023/05/16 05:01:51;;;;;;;13.50;2.20;;;9.60;99.90;;;;;;5026762;28;20049;-55
2023/05/16 05:04:18;;;;;;;12.98;2.22;;;9.70;99.90;;;;;;5044294;28;20037;-51
2023/05/16 05:06:43;;;;;;;11.88;2.33;;;9.90;99.90;;;;;;5043878;28;20324;-55
2023/05/16 05:09:09;;;;;;;10.02;2.00;;;10.10;99.90;;;;;;5044556;28;20495;-53
2023/05/16 05:11:35;;;;;;;9.20;2.33;;;10.30;99.90;;;;;;5043874;28;20062;-56
2023/05/16 05:14:01;;;;;;;13.27;2.25;;;10.40;99.90;;;;;;5043998;28;20049;-55
2023/05/16 05:16:27;;;;;;;13.20;2.40;;;10.70;99.90;;;;;;5044309;28;20056;-49
2023/05/16 05:18:52;;;;;;;10.85;2.40;;;11.00;99.90;;;;;;5044421;28;20435;-56
2023/05/16 05:21:19;;;;;;;14.82;2.78;;;11.20;99.90;;;;;;5043586;28;20052;-51
2023/05/16 05:23:45;;;;;;;15.50;2.40;;;11.30;99.90;;;;;;5043978;28;20060;-52
2023/05/16 05:26:11;;;;;;;9.80;2.28;;;11.30;99.90;;;;;;5043589;28;20044;-56
2023/05/16 05:28:36;;;;;;;13.90;2.85;;;11.60;99.90;;;;;;5044232;28;20049;-51
2023/05/16 05:31:04;;;;;;;12.10;2.33;;;12.00;99.90;;;;;;5043319;28;20119;-53
2023/05/16 05:33:30;;;;;;;12.77;2.30;;;12.30;99.90;;;;;;5043938;28;20040;-53
2023/05/16 05:35:56;;;;;;;10.38;2.10;;;12.20;99.90;;;;;;5025816;28;20677;-57
2023/05/16 05:38:21;;;;;;;11.40;2.00;;;11.60;99.90;;;;;;5043521;28;20049;-53
2023/05/16 05:40:48;;;;;;;10.93;2.08;;;11.00;99.90;;;;;;5043116;28;20478;-54
2023/05/16 05:43:14;;;;;;;12.32;2.47;;;10.70;99.90;;;;;;5043629;28;20041;-57
2023/05/16 05:45:40;;;;;;;12.15;2.80;;;10.70;99.90;;;;;;5043394;28;20041;-51
2023/05/16 05:48:07;;;;;;;11.30;2.50;;;10.80;99.90;;;;;;5026398;28;20045;-56
2023/05/16 05:50:33;;;;;;;8.07;2.20;;;11.40;99.90;;;;;;5025941;28;20521;-51
2023/05/16 05:52:58;;;;;;;6.63;1.80;;;12.10;99.90;;;;;;5043662;28;20257;-53
2023/05/16 05:55:25;;;;;;;11.00;2.17;;;12.70;99.90;;;;;;5042335;28;20044;-56
2023/05/16 05:57:51;;;;;;;10.38;1.90;;;13.20;99.90;;;;;;5043276;28;20122;-54
2023/05/16 06:00:16;;;;;;;11.63;2.50;;;13.50;99.90;;;;;;5043544;28;20033;-56
2023/05/16 06:02:42;;;;;;;9.68;1.95;;;14.00;99.90;;;;;;5042512;28;20471;-54
2023/05/16 06:05:08;;;;;;;12.55;1.98;;;13.90;99.90;;;;;;5043675;28;20247;-56
2023/05/16 06:07:34;;;;;;;10.32;1.92;;;13.80;99.90;;;;;;5043416;28;20391;-53
2023/05/16 06:10:03;;;;;;;11.23;1.92;;;13.60;99.90;;;;;;5042089;28;20052;-52
2023/05/16 06:12:29;;;;;;;10.18;1.83;;;13.90;99.90;;;;;;5043436;28;20045;-55
2023/05/16 06:14:55;;;;;;;10.82;2.05;;;13.80;99.90;;;;;;5042939;28;20064;-56
2023/05/16 06:17:20;;;;;;;12.27;2.00;;;13.70;99.90;;;;;;5042937;28;20041;-56
2023/05/16 06:19:46;;;;;;;9.75;2.17;;;13.00;99.90;;;;;;5042208;28;20037;-52
2023/05/16 06:22:12;;;;;;;14.52;2.28;;;12.60;99.90;;;;;;5043918;28;20055;-52
2023/05/16 06:24:37;;;;;;;8.95;1.55;;;12.20;99.90;;;;;;5024186;28;20080;-52
2023/05/16 06:27:03;;;;;;;10.95;1.88;;;11.90;99.90;;;;;;5042149;28;20036;-56
2023/05/16 06:29:29;;;;;;;9.65;1.92;;;11.60;99.90;;;;;;5043086;28;20499;-55
2023/05/16 06:31:55;;;;;;;8.93;1.90;;;11.30;99.90;;;;;;5042605;28;20316;-50
2023/05/16 06:34:26;;;;;;;7.05;2.00;;;11.20;99.90;;;;;;5042418;28;20037;-55
2023/05/16 06:36:52;;;;;;;9.52;1.50;;;11.70;99.90;;;;;;5042517;28;20098;-51
2023/05/16 06:39:18;;;;;;;7.78;1.63;;;12.50;99.90;;;;;;5042496;28;20052;-56
2023/05/16 06:41:44;;;;;;;8.48;1.95;;;13.20;99.90;;;;;;5042762;28;20499;-51
2023/05/16 06:44:10;;;;;;;6.97;1.35;;;13.70;99.90;;;;;;5024417;28;20052;-56
2023/05/16 06:46:37;;;;;;;7.00;1.77;;;14.10;99.90;;;;;;5042678;28;20570;-51
2023/05/16 06:49:03;;;;;;;8.25;1.77;;;14.70;99.90;;;;;;5042027;28;20112;-55
2023/05/16 06:51:29;;;;;;;9.45;1.60;;;14.70;99.90;;;;;;5042095;28;20044;-54
2023/05/16 06:53:56;;;;;;;8.38;1.98;;;14.70;99.90;;;;;;5042346;28;20592;-56
2023/05/16 06:56:22;;;;;;;9.48;1.38;;;14.70;99.90;;;;;;5042264;28;20044;-56
2023/05/16 06:58:48;;;;;;;6.53;1.10;;;14.20;99.90;;;;;;5034440;28;20041;-51
2023/05/16 07:01:14;;;;;;;7.93;1.50;;;13.60;99.90;;;;;;5032427;28;20091;-56
2023/05/16 07:03:40;;;;;;;4.50;1.38;;;13.60;99.90;;;;;;5031048;28;20049;-52
2023/05/16 07:06:06;;;;;;;8.20;1.17;;;14.10;99.90;;;;;;5038429;28;20704;-52
2023/05/16 07:08:34;;;;;;;8.23;1.65;;;14.50;99.50;;;;;;5041805;28;20372;-57
2023/05/16 07:11:00;;;;;;;6.28;1.40;;;15.00;99.00;;;;;;5040743;28;20480;-56
2023/05/16 07:13:26;;;;;;;9.23;1.70;;;15.30;98.80;;;;;;5033144;28;20121;-56
2023/05/16 07:15:51;;;;;;;7.22;1.67;;;15.60;98.40;;;;;;5026292;28;20053;-53
2023/05/16 07:18:17;;;;;;;5.63;1.38;;;15.80;98.00;;;;;;5022375;28;20041;-66
2023/05/16 07:20:43;;;;;;;5.97;1.35;;;15.80;96.30;;;;;;5022465;28;20044;-53
2023/05/16 07:23:09;;;;;;;7.75;1.85;;;15.60;97.10;;;;;;5035544;28;20159;-56
2023/05/16 07:25:35;;;;;;;5.65;1.58;;;15.80;96.90;;;;;;5041483;28;20126;-55
2023/05/16 07:28:01;;;;;;;9.68;1.77;;;16.10;96.40;;;;;;5041629;28;20071;-51
2023/05/16 07:30:26;;;;;;;9.77;1.92;;;16.30;96.20;;;;;;5041585;28;20053;-48
2023/05/16 07:32:52;;;;;;;3.75;1.23;;;16.30;96.00;;;;;;5041954;28;20067;-53
2023/05/16 07:35:18;;;;;;;6.28;1.50;;;16.30;94.90;;;;;;5041693;28;20053;-56
2023/05/16 07:37:43;;;;;;;6.57;1.17;;;16.20;94.00;;;;;;5042438;28;20495;-55
2023/05/16 07:40:10;;;;;;;6.65;1.55;;;16.00;93.40;;;;;;5039917;28;20326;-54
2023/05/16 07:42:35;;;;;;;6.22;1.52;;;16.10;93.90;;;;;;5041974;28;20029;-56
2023/05/16 07:45:01;;;;;;;5.30;1.25;;;16.00;93.80;;;;;;5032389;28;20281;-53
2023/05/16 07:47:27;;;;;;;6.85;1.48;;;15.90;94.50;;;;;;5032541;28;20588;-55
2023/05/16 07:49:53;;;;;;;10.43;1.77;;;15.40;94.90;;;;;;5041606;28;20041;-48
2023/05/16 07:52:19;;;;;;;15.15;2.15;;;14.60;96.00;;;;;;5041194;28;20550;-48
2023/05/16 07:54:46;;;;;;;6.15;1.48;;;13.90;97.40;;;;;;5041020;28;20049;-59
2023/05/16 07:57:14;;;;;;;8.95;1.75;;;13.40;98.50;;;;;;5040336;28;20562;-53
2023/05/16 07:59:39;;;;;;;10.20;1.65;;;13.30;99.60;;;;;;5022771;28;20037;-57
2023/05/16 08:02:05;;;;;;;7.28;1.40;;;13.70;99.00;;;;;;5023186;28;20071;-52
2023/05/16 08:04:31;;;;;;;6.22;1.70;;;14.20;98.00;;;;;;5039882;28;20496;-58
2023/05/16 08:06:56;;;;;;;7.47;1.65;;;14.50;97.00;;;;;;5041419;28;20128;-59
2023/05/16 08:09:22;;;;;;;8.98;1.85;;;14.70;96.20;;;;;;5040277;28;20735;-54
2023/05/16 08:11:48;;;;;;;9.13;1.63;;;14.70;95.90;;;;;;5041346;28;20045;-59
2023/05/16 08:14:13;;;;;;;8.95;1.80;;;14.90;96.00;;;;;;5041003;28;20041;-55
2023/05/16 08:16:39;;;;;;;5.00;1.33;;;15.20;95.90;;;;;;5041063;28;20215;-56
2023/05/16 08:19:05;;;;;;;4.20;1.40;;;15.40;95.40;;;;;;5041466;28;20539;-60
2023/05/16 08:21:31;;;;;;;6.68;1.55;;;15.20;94.10;;;;;;5040717;28;20049;-52
2023/05/16 08:23:57;;;;;;;6.80;1.27;;;14.90;94.40;;;;;;5040541;28;20045;-59
2023/05/16 08:26:23;;;;;;;9.07;1.85;;;14.60;94.80;;;;;;5041147;28;20033;-53
2023/05/16 08:28:49;;;;;;;8.23;1.60;;;14.40;95.10;;;;;;5040764;28;20045;-60
2023/05/16 08:31:15;;;;;;;8.98;1.52;;;14.10;95.80;;;;;;5041593;28;20098;-59
2023/05/16 08:33:41;;;;;;;9.20;1.55;;;13.70;96.00;;;;;;5040863;28;20033;-55
2023/05/16 08:36:09;;;;;;;9.63;2.08;;;13.40;96.60;;;;;;5040621;28;20041;-59
2023/05/16 08:38:34;;;;;;;6.82;1.77;;;13.50;97.30;;;;;;5040902;28;20068;-56
2023/05/16 08:41:00;;;;;;;8.40;1.67;;;13.90;97.40;;;;;;5040143;28;20041;-59
2023/05/16 08:43:26;;;;;;;6.40;1.20;;;14.20;96.10;;;;;;5040532;28;20037;-50
2023/05/16 08:45:52;;;;;;;7.32;1.55;;;14.10;96.30;;;;;;5040421;28;20049;-59
2023/05/16 08:48:21;;;;;;;11.20;1.70;;;14.00;96.60;;;;;;5034628;28;20041;-58
2023/05/16 08:50:47;;;;;;;5.97;1.27;;;13.70;96.90;;;;;;5031450;28;20069;-59
2023/05/16 08:53:16;;;;;;;6.55;1.33;;;13.50;98.20;;;;;;5028911;28;20065;-57
2023/05/16 08:55:44;;;;;;;4.97;1.40;;;13.60;98.70;;;;;;5022242;28;20046;-55
2023/05/16 08:58:11;;;;;;;9.13;1.77;;;13.90;98.80;;;;;;5021089;28;20038;-53
2023/05/16 09:00:38;;;;;;;6.05;1.40;;;14.30;98.50;;;;;;5020191;28;20042;-58
2023/05/16 09:03:05;;;;;;;9.68;2.40;;;14.70;98.10;;;;;;5003602;28;20073;-56
2023/05/16 09:05:31;;;;;;;9.10;1.70;;;15.10;97.10;;;;;;5020861;28;20059;-58
2023/05/16 09:07:57;;;;;;;10.25;1.75;;;15.20;96.60;;;;;;5020427;28;20041;-55
2023/05/16 09:10:23;;;;;;;8.63;1.77;;;15.10;96.50;;;;;;5019995;28;20430;-56
2023/05/16 09:12:48;;;;;;;7.78;1.48;;;14.80;96.40;;;;;;5025156;28;20038;-59
2023/05/16 09:15:19;;;;;;;8.20;1.58;;;14.70;96.40;;;;;;5023784;28;20054;-56
2023/05/16 09:17:45;;;;;;;8.65;1.38;;;14.80;96.10;;;;;;5025302;28;20419;-53
2023/05/16 09:20:12;;;;;;;6.53;1.40;;;14.80;95.60;;;;;;5030784;28;20148;-55
2023/05/16 09:22:38;;;;;;;6.57;1.67;;;14.50;95.30;;;;;;5005488;28;20041;-58
2023/05/16 09:25:05;;;;;;;11.32;1.92;;;14.30;96.00;;;;;;5023400;28;20051;-53
2023/05/16 09:27:30;;;;;;;7.50;1.40;;;14.10;96.70;;;;;;5024253;28;20037;-56
2023/05/16 09:29:57;;;;;;;5.20;1.40;;;13.80;97.80;;;;;;5024537;28;20041;-56
2023/05/16 09:32:24;;;;;;;5.47;1.05;;;13.20;98.90;;;;;;5023891;28;20164;-56
2023/05/16 09:34:53;;;;;;;5.97;1.15;;;12.70;98.70;;;;;;5024412;28;20072;-60
2023/05/16 09:37:19;;;;;;;7.72;1.35;;;12.20;99.10;;;;;;5023961;28;20442;-56
2023/05/16 09:39:50;;;;;;;5.32;1.10;;;12.20;99.90;;;;;;5022219;28;20087;-55
2023/05/16 09:42:18;;;;;;;4.05;1.20;;;12.70;99.90;;;;;;5023785;28;20076;-59
2023/05/16 09:44:51;;;;;;;8.05;1.30;;;13.00;99.90;;;;;;5023735;28;20053;-55
2023/05/16 09:47:18;;;;;;;7.32;1.40;;;13.60;99.90;;;;;;5023811;28;20048;-55
2023/05/16 09:49:45;;;;;;;10.98;2.28;;;14.10;99.50;;;;;;5023574;28;20049;-53
2023/05/16 09:52:15;;;;;;;11.98;2.15;;;14.40;99.50;;;;;;5024000;28;20474;-61
2023/05/16 09:54:41;;;;;;;11.40;1.77;;;14.50;99.20;;;;;;5022982;28;20132;-54
2023/05/16 09:57:06;;;;;;;8.38;1.60;;;14.40;99.30;;;;;;5023592;28;20029;-56
2023/05/16 09:59:39;;;;;;;7.50;1.40;;;14.10;98.30;;;;;;5023520;28;20300;-59
2023/05/16 10:02:06;;;;;;;4.72;0.80;;;13.80;95.90;;;;;;5023459;28;20171;-55
2023/05/16 10:04:35;;;;;;;4.97;1.08;;;13.80;96.30;;;;;;5023441;28;20191;-56
2023/05/16 10:07:08;;;;;;;5.30;0.80;;;13.90;96.70;;;;;;5023410;28;20046;-59
2023/05/16 10:09:35;;;;;;;3.75;0.93;;;14.00;97.20;;;;;;5022649;28;20294;-57
2023/05/16 10:12:04;;;;;;;4.72;0.90;;;14.00;97.20;;;;;;5023438;28;20048;-59
2023/05/16 10:14:34;;;;;;;4.95;0.95;;;14.30;97.40;;;;;;5022571;28;20381;-54
2023/05/16 10:17:02;;;;;;;4.97;0.80;;;14.80;96.90;;;;;;5023312;28;20049;-55
2023/05/16 10:19:30;;;;;;;3.85;0.70;;;15.00;96.30;;;;;;5023208;28;20200;-50
2023/05/16 10:21:59;;;;;;;3.95;0.77;;;15.20;96.10;;;;;;5005024;28;20057;-59
2023/05/16 10:24:45;;;;;;;4.50;1.00;;;15.60;96.20;;;;;;5024452;28;20059;-59
2023/05/16 10:27:11;;;;;;;3.75;0.73;;;15.90;95.40;;;;;;5024806;28;20050;-58
2023/05/16 10:29:38;;;;;;;4.72;1.20;;;16.10;95.40;;;;;;5026086;28;20044;-60
2023/05/16 10:32:05;;;;;;;6.05;1.02;;;16.30;95.00;;;;;;5025235;28;20048;-60
2023/05/16 10:34:31;;;;;;;8.95;1.13;;;16.40;94.70;;;;;;5025067;28;20428;-57
2023/05/16 10:36:58;;;;;;;5.35;1.02;;;16.50;95.00;;;;;;5025803;28;20042;-51
2023/05/16 10:39:25;;;;;;;5.00;1.38;;;16.50;95.00;;;;;;5025219;28;20133;-61
2023/05/16 10:41:51;;;;;;;8.60;1.17;;;16.40;95.00;;;;;;5025641;28;20141;-63
2023/05/16 10:44:16;;;;;;;7.47;1.30;;;16.30;93.70;;;;;;5023509;28;20504;-61
2023/05/16 10:46:42;;;;;;;9.55;1.30;;;16.30;93.80;;;;;;5025575;28;20111;-60
2023/05/16 10:49:26;;;;;;;82.00;6.28;;;16.60;93.90;;;;;;5025461;28;20103;-62
2023/05/16 10:52:04;;;;;;;8.93;2.15;;;16.50;93.10;;;;;;5024508;28;20034;-61
2023/05/16 10:54:40;;;;;;;7.40;1.75;;;16.10;93.90;;;;;;5025250;28;20045;-62
2023/05/16 10:57:08;;;;;;;12.25;1.88;;;15.30;97.60;;;;;;5024026;28;20049;-60
2023/05/16 10:59:45;;;;;;;5.38;1.33;;;14.50;98.70;;;;;;5022601;28;20164;-59
2023/05/16 11:02:33;;;;;;;4.47;1.17;;;14.00;99.90;;;;;;5021279;28;20077;-58
2023/05/16 11:05:01;;;;;;;5.95;1.30;;;14.10;99.90;;;;;;5022211;28;20049;-62
2023/05/16 11:07:35;;;;;;;5.47;1.08;;;14.30;99.90;;;;;;5021848;28;20110;-60
2023/05/16 11:10:16;;;;;;;7.55;1.45;;;14.70;99.90;;;;;;5021498;28;20045;-63
2023/05/16 11:12:42;;;;;;;5.78;1.30;;;14.90;99.90;;;;;;5021268;28;20132;-61
2023/05/16 11:15:19;;;;;;;4.90;0.98;;;15.20;99.90;;;;;;5004179;28;20053;-59
2023/05/16 11:17:45;;;;;;;7.80;1.80;;;15.40;99.90;;;;;;5004355;28;20050;-59
2023/05/16 11:20:33;;;;;;;5.63;1.25;;;15.60;99.90;;;;;;5003487;28;20080;-60
2023/05/16 11:23:21;;;;;;;5.78;1.10;;;15.60;99.90;;;;;;5022527;28;20037;-58
2023/05/16 11:26:07;;;;;;;4.00;1.30;;;15.80;99.90;;;;;;5021958;28;20049;-63
2023/05/16 11:28:33;;;;;;;5.60;1.45;;;15.70;98.10;;;;;;5021172;28;20068;-60
2023/05/16 11:30:58;;;;;;;6.20;1.67;;;15.70;99.20;;;;;;5021811;28;20037;-57
2023/05/16 11:33:24;;;;;;;7.10;1.27;;;15.60;99.30;;;;;;5021804;28;20053;-64
2023/05/16 11:36:07;;;;;;;9.38;1.45;;;15.50;99.30;;;;;;5003762;28;20101;-59
2023/05/16 11:38:33;;;;;;;8.45;1.35;;;15.30;99.00;;;;;;5020952;28;20042;-56
2023/05/16 11:41:04;;;;;;;8.15;1.35;;;15.20;99.40;;;;;;5021938;28;20362;-57
2023/05/16 11:43:40;;;;;;;9.38;1.70;;;15.40;98.40;;;;;;5021336;28;20076;-59
2023/05/16 11:46:06;;;;;;;8.77;1.55;;;15.30;97.90;;;;;;5024231;28;20048;-55
2023/05/16 11:48:32;;;;;;;7.90;1.33;;;15.40;97.50;;;;;;5026588;28;20120;-56
2023/05/16 11:50:58;;;;;;;10.52;1.65;;;15.40;96.90;;;;;;5020782;28;20045;-56
2023/05/16 11:53:24;;;;;;;7.57;1.50;;;15.60;96.00;;;;;;5020963;28;20475;-55
2023/05/16 11:55:51;;;;;;;7.97;1.40;;;15.70;95.70;;;;;;5021535;28;20041;-59
2023/05/16 11:58:18;;;;;;;7.85;1.50;;;16.00;95.90;;;;;;5003277;28;20048;-57
2023/05/16 12:00:50;;;;;;;8.75;1.98;;;16.10;95.20;;;;;;5041119;28;20136;-56
2023/05/16 12:03:18;;;;;;;9.60;2.13;;;16.00;95.00;;;;;;5041439;28;20185;-60
2023/05/16 12:05:54;;;;;;;7.18;1.35;;;16.00;95.20;;;;;;5040454;28;20055;-53
2023/05/16 12:08:20;;;;;;;6.10;1.65;;;15.80;95.20;;;;;;5040197;28;20064;-55
2023/05/16 12:10:49;;;;;;;6.68;1.63;;;15.70;94.10;;;;;;5041033;28;20375;-57
2023/05/16 12:13:15;;;;;;;9.85;1.85;;;15.40;94.50;;;;;;5040723;28;20047;-58
2023/05/16 12:15:41;;;;;;;6.82;2.08;;;15.40;94.20;;;;;;5040624;28;20041;-56
2023/05/16 12:18:08;;;;;;;8.23;2.13;;;15.60;94.60;;;;;;5040899;28;20154;-56
2023/05/16 12:20:34;;;;;;;8.38;2.20;;;15.80;93.40;;;;;;5040245;28;20098;-60
2023/05/16 12:22:59;;;;;;;6.45;2.10;;;15.80;93.00;;;;;;5041324;28;20045;-60
2023/05/16 12:25:26;;;;;;;8.10;2.60;;;15.60;92.30;;;;;;5022345;28;20049;-59
2023/05/16 12:27:57;;;;;;;7.07;2.50;;;15.50;92.40;;;;;;5041134;28;20102;-56
2023/05/16 12:30:25;;;;;;;9.00;2.35;;;15.50;92.80;;;;;;5040898;28;20640;-60
2023/05/16 12:33:11;;;;;;;7.00;1.83;;;15.50;92.90;;;;;;5040527;28;20056;-56
2023/05/16 12:35:41;;;;;;;6.80;1.98;;;15.30;92.80;;;;;;5021707;28;20651;-57
2023/05/16 12:38:08;;;;;;;7.88;1.70;;;15.20;93.30;;;;;;5040480;28;20075;-57
2023/05/16 12:40:40;;;;;;;6.57;2.20;;;15.20;93.60;;;;;;5040297;28;20397;-55
2023/05/16 12:43:18;;;;;;;9.00;2.10;;;15.50;93.60;;;;;;5040852;28;20041;-54
2023/05/16 12:45:50;;;;;;;6.45;1.98;;;15.90;92.90;;;;;;5040749;28;20575;-55
2023/05/16 12:48:15;;;;;;;9.35;2.40;;;16.00;92.30;;;;;;5044885;28;20037;-59